sensor_id;sensor_type;location;lat;lon;timestamp;P1;durP1;ratioP1;P2;durP2;ratioP2
19285;SDS011;9776;50.798;6.430;2022-12-18T00:00:42;7.80;;;7.10;;
19285;SDS011;9776;50.798;6.430;2022-12-18T00:03:08;7.93;;;7.23;;
19285;SDS011;9776;50.798;6.430;2022-12-18T00:05:35;7.30;;;6.60;;
19285;SDS011;9776;50.798;6.430;2022-12-18T00:08:02;8.10;;;7.40;;
19285;SDS011;9776;50.798;6.430;2022-12-18T00:10:30;6.73;;;6.23;;
19285;SDS011;9776;50.798;6.430;2022-12-18T00:12:57;7.17;;;6.57;;
19285;SDS011;9776;50.798;6.430;2022-12-18T00:15:24;7.00;;;6.50;;
19285;SDS011;9776;50.798;6.430;2022-12-18T00:17:50;7.17;;;6.57;;
19285;SDS011;9776;50.798;6.430;2022-12-18T00:20:17;7.17;;;6.57;;
19285;SDS011;9776;50.798;6.430;2022-12-18T00:22:50;7.13;;;6.53;;
19285;SDS011;9776;50.798;6.430;2022-12-18T00:25:17;7.23;;;6.57;;
19285;SDS011;9776;50.798;6.430;2022-12-18T00:27:45;7.27;;;6.67;;
19285;SDS011;9776;50.798;6.430;2022-12-18T00:30:12;7.63;;;6.97;;
19285;SDS011;9776;50.798;6.430;2022-12-18T00:32:39;7.27;;;6.73;;
19285;SDS011;9776;50.798;6.430;2022-12-18T00:35:06;7.43;;;6.83;;
19285;SDS011;9776;50.798;6.430;2022-12-18T00:37:33;7.67;;;6.97;;
19285;SDS011;9776;50.798;6.430;2022-12-18T00:40:00;7.53;;;6.87;;
19285;SDS011;9776;50.798;6.430;2022-12-18T00:42:28;7.53;;;6.93;;
19285;SDS011;9776;50.798;6.430;2022-12-18T00:45:29;6.70;;;6.20;;
19285;SDS011;9776;50.798;6.430;2022-12-18T00:47:57;7.13;;;6.53;;
19285;SDS011;9776;50.798;6.430;2022-12-18T00:50:24;6.83;;;6.33;;
19285;SDS011;9776;50.798;6.430;2022-12-18T00:52:51;7.40;;;6.70;;
19285;SDS011;9776;50.798;6.430;2022-12-18T00:55:18;7.20;;;6.60;;
19285;SDS011;9776;50.798;6.430;2022-12-18T00:57:45;6.67;;;6.17;;
19285;SDS011;9776;50.798;6.430;2022-12-18T01:00:13;6.47;;;5.97;;
19285;SDS011;9776;50.798;6.430;2022-12-18T01:02:42;7.27;;;6.70;;
19285;SDS011;9776;50.798;6.430;2022-12-18T01:05:09;6.60;;;6.00;;
19285;SDS011;9776;50.798;6.430;2022-12-18T01:07:37;6.57;;;6.07;;
19285;SDS011;9776;50.798;6.430;2022-12-18T01:10:04;6.87;;;6.37;;
19285;SDS011;9776;50.798;6.430;2022-12-18T01:12:32;5.90;;;5.50;;
19285;SDS011;9776;50.798;6.430;2022-12-18T01:14:59;7.00;;;6.40;;
19285;SDS011;9776;50.798;6.430;2022-12-18T01:17:25;6.53;;;6.03;;
19285;SDS011;9776;50.798;6.430;2022-12-18T01:19:53;6.50;;;6.00;;
19285;SDS011;9776;50.798;6.430;2022-12-18T01:22:20;5.87;;;5.47;;
19285;SDS011;9776;50.798;6.430;2022-12-18T01:24:47;6.33;;;5.80;;
19285;SDS011;9776;50.798;6.430;2022-12-18T01:27:14;5.90;;;5.50;;
19285;SDS011;9776;50.798;6.430;2022-12-18T01:29:41;6.70;;;6.20;;
19285;SDS011;9776;50.798;6.430;2022-12-18T01:32:07;6.20;;;5.80;;
19285;SDS011;9776;50.798;6.430;2022-12-18T01:34:35;5.83;;;5.43;;
19285;SDS011;9776;50.798;6.430;2022-12-18T01:37:03;6.17;;;5.67;;
19285;SDS011;9776;50.798;6.430;2022-12-18T01:39:30;6.23;;;5.73;;
19285;SDS011;9776;50.798;6.430;2022-12-18T01:41:58;6.77;;;6.17;;
19285;SDS011;9776;50.798;6.430;2022-12-18T01:47:21;6.80;;;6.30;;
19285;SDS011;9776;50.798;6.430;2022-12-18T01:49:51;6.57;;;6.07;;
19285;SDS011;9776;50.798;6.430;2022-12-18T01:52:20;6.93;;;6.43;;
19285;SDS011;9776;50.798;6.430;2022-12-18T01:54:49;6.97;;;6.47;;
19285;SDS011;9776;50.798;6.430;2022-12-18T01:57:17;6.97;;;6.47;;
19285;SDS011;9776;50.798;6.430;2022-12-18T01:59:44;6.80;;;6.20;;
19285;SDS011;9776;50.798;6.430;2022-12-18T02:02:15;6.90;;;6.40;;
19285;SDS011;9776;50.798;6.430;2022-12-18T02:04:43;6.63;;;6.13;;
19285;SDS011;9776;50.798;6.430;2022-12-18T02:07:11;6.93;;;6.43;;
19285;SDS011;9776;50.798;6.430;2022-12-18T02:09:46;6.50;;;6.00;;
19285;SDS011;9776;50.798;6.430;2022-12-18T02:12:17;6.37;;;5.90;;
19285;SDS011;9776;50.798;6.430;2022-12-18T02:14:49;6.63;;;6.03;;
19285;SDS011;9776;50.798;6.430;2022-12-18T02:17:26;6.50;;;6.00;;
19285;SDS011;9776;50.798;6.430;2022-12-18T02:20:02;6.63;;;6.13;;
19285;SDS011;9776;50.798;6.430;2022-12-18T02:22:41;6.43;;;5.93;;
19285;SDS011;9776;50.798;6.430;2022-12-18T02:25:21;6.87;;;6.27;;
19285;SDS011;9776;50.798;6.430;2022-12-18T02:28:02;7.03;;;6.53;;
19285;SDS011;9776;50.798;6.430;2022-12-18T02:30:33;7.40;;;6.70;;
19285;SDS011;9776;50.798;6.430;2022-12-18T02:33:04;6.70;;;6.20;;
19285;SDS011;9776;50.798;6.430;2022-12-18T02:35:33;6.80;;;6.20;;
19285;SDS011;9776;50.798;6.430;2022-12-18T02:38:01;6.63;;;6.13;;
19285;SDS011;9776;50.798;6.430;2022-12-18T02:40:30;7.20;;;6.50;;
19285;SDS011;9776;50.798;6.430;2022-12-18T02:43:03;7.00;;;6.40;;
19285;SDS011;9776;50.798;6.430;2022-12-18T02:45:33;6.43;;;5.93;;
19285;SDS011;9776;50.798;6.430;2022-12-18T02:48:00;7.03;;;6.47;;
19285;SDS011;9776;50.798;6.430;2022-12-18T02:50:29;7.20;;;6.60;;
19285;SDS011;9776;50.798;6.430;2022-12-18T02:53:03;6.53;;;6.03;;
19285;SDS011;9776;50.798;6.430;2022-12-18T02:55:41;6.67;;;6.07;;
19285;SDS011;9776;50.798;6.430;2022-12-18T02:58:20;6.87;;;6.37;;
19285;SDS011;9776;50.798;6.430;2022-12-18T03:00:53;7.10;;;6.50;;
19285;SDS011;9776;50.798;6.430;2022-12-18T03:03:26;7.00;;;6.40;;
19285;SDS011;9776;50.798;6.430;2022-12-18T03:06:00;6.97;;;6.47;;
19285;SDS011;9776;50.798;6.430;2022-12-18T03:08:32;6.77;;;6.17;;
19285;SDS011;9776;50.798;6.430;2022-12-18T03:11:04;7.17;;;6.67;;
19285;SDS011;9776;50.798;6.430;2022-12-18T03:13:36;6.90;;;6.30;;
19285;SDS011;9776;50.798;6.430;2022-12-18T03:16:06;7.20;;;6.60;;
19285;SDS011;9776;50.798;6.430;2022-12-18T03:18:37;6.60;;;6.10;;
19285;SDS011;9776;50.798;6.430;2022-12-18T03:21:08;7.30;;;6.70;;
19285;SDS011;9776;50.798;6.430;2022-12-18T03:23:38;6.60;;;6.10;;
19285;SDS011;9776;50.798;6.430;2022-12-18T03:26:10;6.90;;;6.37;;
19285;SDS011;9776;50.798;6.430;2022-12-18T03:28:43;7.43;;;6.83;;
19285;SDS011;9776;50.798;6.430;2022-12-18T03:31:14;6.57;;;6.07;;
19285;SDS011;9776;50.798;6.430;2022-12-18T03:33:45;6.60;;;6.10;;
19285;SDS011;9776;50.798;6.430;2022-12-18T03:36:17;6.30;;;5.80;;
19285;SDS011;9776;50.798;6.430;2022-12-18T03:38:44;6.37;;;5.90;;
19285;SDS011;9776;50.798;6.430;2022-12-18T03:41:13;6.80;;;6.30;;
19285;SDS011;9776;50.798;6.430;2022-12-18T03:43:48;6.90;;;6.40;;
19285;SDS011;9776;50.798;6.430;2022-12-18T03:46:21;7.23;;;6.53;;
19285;SDS011;9776;50.798;6.430;2022-12-18T03:48:57;7.10;;;6.50;;
19285;SDS011;9776;50.798;6.430;2022-12-18T03:51:28;7.37;;;6.70;;
19285;SDS011;9776;50.798;6.430;2022-12-18T03:54:03;6.57;;;6.07;;
19285;SDS011;9776;50.798;6.430;2022-12-18T03:56:33;6.87;;;6.37;;
19285;SDS011;9776;50.798;6.430;2022-12-18T03:59:06;6.87;;;6.37;;
19285;SDS011;9776;50.798;6.430;2022-12-18T04:01:37;6.90;;;6.40;;
19285;SDS011;9776;50.798;6.430;2022-12-18T04:04:07;6.90;;;6.20;;
19285;SDS011;9776;50.798;6.430;2022-12-18T04:06:36;7.43;;;6.83;;
19285;SDS011;9776;50.798;6.430;2022-12-18T04:09:04;6.60;;;6.10;;
19285;SDS011;9776;50.798;6.430;2022-12-18T04:11:31;6.70;;;6.20;;
19285;SDS011;9776;50.798;6.430;2022-12-18T04:13:58;7.23;;;6.63;;
19285;SDS011;9776;50.798;6.430;2022-12-18T04:16:26;7.27;;;6.67;;
19285;SDS011;9776;50.798;6.430;2022-12-18T04:18:53;6.70;;;6.17;;
19285;SDS011;9776;50.798;6.430;2022-12-18T04:21:20;6.33;;;5.87;;
19285;SDS011;9776;50.798;6.430;2022-12-18T04:23:47;6.90;;;6.40;;
19285;SDS011;9776;50.798;6.430;2022-12-18T04:26:14;6.70;;;6.20;;
19285;SDS011;9776;50.798;6.430;2022-12-18T04:28:41;6.37;;;5.87;;
19285;SDS011;9776;50.798;6.430;2022-12-18T04:31:08;6.40;;;5.90;;
19285;SDS011;9776;50.798;6.430;2022-12-18T04:33:36;7.03;;;6.50;;
19285;SDS011;9776;50.798;6.430;2022-12-18T04:36:03;7.17;;;6.53;;
19285;SDS011;9776;50.798;6.430;2022-12-18T04:38:30;7.07;;;6.47;;
19285;SDS011;9776;50.798;6.430;2022-12-18T04:40:57;6.73;;;6.17;;
19285;SDS011;9776;50.798;6.430;2022-12-18T04:43:24;7.23;;;6.63;;
19285;SDS011;9776;50.798;6.430;2022-12-18T04:45:51;7.17;;;6.57;;
19285;SDS011;9776;50.798;6.430;2022-12-18T04:48:17;6.80;;;6.30;;
19285;SDS011;9776;50.798;6.430;2022-12-18T04:50:47;6.97;;;6.47;;
19285;SDS011;9776;50.798;6.430;2022-12-18T04:53:14;7.07;;;6.50;;
19285;SDS011;9776;50.798;6.430;2022-12-18T04:55:41;6.27;;;5.80;;
19285;SDS011;9776;50.798;6.430;2022-12-18T04:58:07;6.90;;;6.40;;
19285;SDS011;9776;50.798;6.430;2022-12-18T05:00:34;6.33;;;5.83;;
19285;SDS011;9776;50.798;6.430;2022-12-18T05:03:01;6.93;;;6.43;;
19285;SDS011;9776;50.798;6.430;2022-12-18T05:05:28;6.80;;;6.30;;
19285;SDS011;9776;50.798;6.430;2022-12-18T05:07:56;6.20;;;5.70;;
19285;SDS011;9776;50.798;6.430;2022-12-18T05:10:22;6.93;;;6.33;;
19285;SDS011;9776;50.798;6.430;2022-12-18T05:12:49;6.87;;;6.30;;
19285;SDS011;9776;50.798;6.430;2022-12-18T05:15:26;6.60;;;6.10;;
19285;SDS011;9776;50.798;6.430;2022-12-18T05:17:53;6.27;;;5.77;;
19285;SDS011;9776;50.798;6.430;2022-12-18T05:20:20;6.97;;;6.37;;
19285;SDS011;9776;50.798;6.430;2022-12-18T05:22:47;6.83;;;6.30;;
19285;SDS011;9776;50.798;6.430;2022-12-18T05:25:15;6.97;;;6.37;;
19285;SDS011;9776;50.798;6.430;2022-12-18T05:27:42;7.37;;;6.77;;
19285;SDS011;9776;50.798;6.430;2022-12-18T05:30:09;6.40;;;5.90;;
19285;SDS011;9776;50.798;6.430;2022-12-18T05:32:36;6.60;;;6.10;;
19285;SDS011;9776;50.798;6.430;2022-12-18T05:35:04;6.93;;;6.33;;
19285;SDS011;9776;50.798;6.430;2022-12-18T05:37:32;6.53;;;6.03;;
19285;SDS011;9776;50.798;6.430;2022-12-18T05:39:59;6.70;;;6.17;;
19285;SDS011;9776;50.798;6.430;2022-12-18T05:42:27;7.23;;;6.67;;
19285;SDS011;9776;50.798;6.430;2022-12-18T05:44:54;7.00;;;6.50;;
19285;SDS011;9776;50.798;6.430;2022-12-18T05:47:20;7.07;;;6.57;;
19285;SDS011;9776;50.798;6.430;2022-12-18T05:49:47;6.90;;;6.30;;
19285;SDS011;9776;50.798;6.430;2022-12-18T05:52:14;6.70;;;6.20;;
19285;SDS011;9776;50.798;6.430;2022-12-18T05:54:41;7.00;;;6.50;;
19285;SDS011;9776;50.798;6.430;2022-12-18T05:57:07;6.70;;;6.20;;
19285;SDS011;9776;50.798;6.430;2022-12-18T05:59:36;7.20;;;6.70;;
19285;SDS011;9776;50.798;6.430;2022-12-18T06:02:02;7.60;;;7.00;;
19285;SDS011;9776;50.798;6.430;2022-12-18T06:04:29;6.80;;;6.30;;
19285;SDS011;9776;50.798;6.430;2022-12-18T06:06:56;6.40;;;5.90;;
19285;SDS011;9776;50.798;6.430;2022-12-18T06:09:23;6.57;;;6.07;;
19285;SDS011;9776;50.798;6.430;2022-12-18T06:11:50;7.50;;;6.90;;
19285;SDS011;9776;50.798;6.430;2022-12-18T06:14:17;7.93;;;7.30;;
19285;SDS011;9776;50.798;6.430;2022-12-18T06:16:46;7.80;;;7.10;;
19285;SDS011;9776;50.798;6.430;2022-12-18T06:19:14;7.67;;;7.07;;
19285;SDS011;9776;50.798;6.430;2022-12-18T06:21:41;7.50;;;6.90;;
19285;SDS011;9776;50.798;6.430;2022-12-18T06:24:08;7.37;;;6.77;;
19285;SDS011;9776;50.798;6.430;2022-12-18T06:26:36;7.53;;;6.93;;
19285;SDS011;9776;50.798;6.430;2022-12-18T06:29:03;7.53;;;6.93;;
19285;SDS011;9776;50.798;6.430;2022-12-18T06:31:30;7.30;;;6.80;;
19285;SDS011;9776;50.798;6.430;2022-12-18T06:33:58;7.30;;;6.70;;
19285;SDS011;9776;50.798;6.430;2022-12-18T06:36:24;8.00;;;7.40;;
19285;SDS011;9776;50.798;6.430;2022-12-18T06:38:58;7.47;;;6.87;;
19285;SDS011;9776;50.798;6.430;2022-12-18T06:41:25;8.23;;;7.57;;
19285;SDS011;9776;50.798;6.430;2022-12-18T06:43:52;7.60;;;7.00;;
19285;SDS011;9776;50.798;6.430;2022-12-18T06:46:19;7.23;;;6.63;;
19285;SDS011;9776;50.798;6.430;2022-12-18T06:48:46;7.77;;;7.17;;
19285;SDS011;9776;50.798;6.430;2022-12-18T06:51:17;8.00;;;7.30;;
19285;SDS011;9776;50.798;6.430;2022-12-18T06:53:45;8.03;;;7.23;;
19285;SDS011;9776;50.798;6.430;2022-12-18T06:56:12;8.87;;;7.97;;
19285;SDS011;9776;50.798;6.430;2022-12-18T06:58:38;9.00;;;8.20;;
19285;SDS011;9776;50.798;6.430;2022-12-18T07:01:07;8.30;;;7.60;;
19285;SDS011;9776;50.798;6.430;2022-12-18T07:03:35;8.30;;;7.60;;
19285;SDS011;9776;50.798;6.430;2022-12-18T07:06:03;7.80;;;7.20;;
19285;SDS011;9776;50.798;6.430;2022-12-18T07:08:31;7.80;;;7.00;;
19285;SDS011;9776;50.798;6.430;2022-12-18T07:10:58;8.20;;;7.40;;
19285;SDS011;9776;50.798;6.430;2022-12-18T07:13:25;8.00;;;7.40;;
19285;SDS011;9776;50.798;6.430;2022-12-18T07:15:52;8.10;;;7.40;;
19285;SDS011;9776;50.798;6.430;2022-12-18T07:18:18;7.70;;;7.10;;
19285;SDS011;9776;50.798;6.430;2022-12-18T07:20:45;7.97;;;7.27;;
19285;SDS011;9776;50.798;6.430;2022-12-18T07:23:12;8.07;;;7.30;;
19285;SDS011;9776;50.798;6.430;2022-12-18T07:25:40;7.87;;;7.07;;
19285;SDS011;9776;50.798;6.430;2022-12-18T07:28:07;8.07;;;7.37;;
19285;SDS011;9776;50.798;6.430;2022-12-18T07:30:36;7.97;;;7.27;;
19285;SDS011;9776;50.798;6.430;2022-12-18T07:33:03;7.87;;;7.17;;
19285;SDS011;9776;50.798;6.430;2022-12-18T07:35:30;7.67;;;7.07;;
19285;SDS011;9776;50.798;6.430;2022-12-18T07:37:56;8.13;;;7.43;;
19285;SDS011;9776;50.798;6.430;2022-12-18T07:40:23;7.97;;;7.17;;
19285;SDS011;9776;50.798;6.430;2022-12-18T07:42:51;8.83;;;8.00;;
19285;SDS011;9776;50.798;6.430;2022-12-18T07:45:18;8.40;;;7.70;;
19285;SDS011;9776;50.798;6.430;2022-12-18T07:47:45;9.17;;;8.27;;
19285;SDS011;9776;50.798;6.430;2022-12-18T07:50:12;9.97;;;8.97;;
19285;SDS011;9776;50.798;6.430;2022-12-18T07:52:39;8.67;;;7.97;;
19285;SDS011;9776;50.798;6.430;2022-12-18T07:55:06;8.63;;;7.93;;
19285;SDS011;9776;50.798;6.430;2022-12-18T07:57:33;7.90;;;7.30;;
19285;SDS011;9776;50.798;6.430;2022-12-18T08:00:01;8.67;;;7.83;;
19285;SDS011;9776;50.798;6.430;2022-12-18T08:02:30;8.07;;;7.47;;
19285;SDS011;9776;50.798;6.430;2022-12-18T08:04:56;7.90;;;7.30;;
19285;SDS011;9776;50.798;6.430;2022-12-18T08:07:23;8.13;;;7.43;;
19285;SDS011;9776;50.798;6.430;2022-12-18T08:09:50;8.37;;;7.57;;
19285;SDS011;9776;50.798;6.430;2022-12-18T08:12:16;8.53;;;7.83;;
19285;SDS011;9776;50.798;6.430;2022-12-18T08:14:43;7.93;;;7.17;;
19285;SDS011;9776;50.798;6.430;2022-12-18T08:17:11;8.23;;;7.53;;
19285;SDS011;9776;50.798;6.430;2022-12-18T08:19:38;7.37;;;6.77;;
19285;SDS011;9776;50.798;6.430;2022-12-18T08:22:05;7.97;;;7.27;;
19285;SDS011;9776;50.798;6.430;2022-12-18T08:24:32;6.63;;;6.13;;
19285;SDS011;9776;50.798;6.430;2022-12-18T08:26:59;8.40;;;7.67;;
19285;SDS011;9776;50.798;6.430;2022-12-18T08:29:26;7.70;;;7.10;;
19285;SDS011;9776;50.798;6.430;2022-12-18T08:31:53;7.53;;;7.00;;
19285;SDS011;9776;50.798;6.430;2022-12-18T08:34:21;7.97;;;7.37;;
19285;SDS011;9776;50.798;6.430;2022-12-18T08:36:48;7.63;;;7.03;;
19285;SDS011;9776;50.798;6.430;2022-12-18T08:39:15;8.37;;;7.67;;
19285;SDS011;9776;50.798;6.430;2022-12-18T08:41:42;8.37;;;7.67;;
19285;SDS011;9776;50.798;6.430;2022-12-18T08:44:28;7.83;;;7.23;;
19285;SDS011;9776;50.798;6.430;2022-12-18T08:47:03;8.07;;;7.37;;
19285;SDS011;9776;50.798;6.430;2022-12-18T08:49:32;8.10;;;7.40;;
19285;SDS011;9776;50.798;6.430;2022-12-18T08:51:59;8.07;;;7.37;;
19285;SDS011;9776;50.798;6.430;2022-12-18T08:54:26;8.93;;;8.13;;
19285;SDS011;9776;50.798;6.430;2022-12-18T08:56:53;8.90;;;8.10;;
19285;SDS011;9776;50.798;6.430;2022-12-18T08:59:20;8.83;;;8.13;;
19285;SDS011;9776;50.798;6.430;2022-12-18T09:01:48;8.10;;;7.50;;
19285;SDS011;9776;50.798;6.430;2022-12-18T09:04:15;9.13;;;8.33;;
19285;SDS011;9776;50.798;6.430;2022-12-18T09:06:43;8.10;;;7.50;;
19285;SDS011;9776;50.798;6.430;2022-12-18T09:09:10;8.90;;;8.20;;
19285;SDS011;9776;50.798;6.430;2022-12-18T09:11:37;8.93;;;8.13;;
19285;SDS011;9776;50.798;6.430;2022-12-18T09:14:04;8.17;;;7.47;;
19285;SDS011;9776;50.798;6.430;2022-12-18T09:16:31;7.93;;;7.30;;
19285;SDS011;9776;50.798;6.430;2022-12-18T09:19:00;8.07;;;7.37;;
19285;SDS011;9776;50.798;6.430;2022-12-18T09:21:28;7.23;;;6.73;;
19285;SDS011;9776;50.798;6.430;2022-12-18T09:23:58;7.90;;;7.30;;
19285;SDS011;9776;50.798;6.430;2022-12-18T09:26:25;7.97;;;7.37;;
19285;SDS011;9776;50.798;6.430;2022-12-18T09:28:52;7.50;;;6.90;;
19285;SDS011;9776;50.798;6.430;2022-12-18T09:31:21;7.73;;;7.13;;
19285;SDS011;9776;50.798;6.430;2022-12-18T09:33:49;7.33;;;6.73;;
19285;SDS011;9776;50.798;6.430;2022-12-18T09:36:16;8.40;;;7.70;;
19285;SDS011;9776;50.798;6.430;2022-12-18T09:38:44;7.43;;;6.83;;
19285;SDS011;9776;50.798;6.430;2022-12-18T09:41:18;7.70;;;7.03;;
19285;SDS011;9776;50.798;6.430;2022-12-18T09:43:55;7.77;;;7.17;;
19285;SDS011;9776;50.798;6.430;2022-12-18T09:46:26;7.60;;;7.00;;
19285;SDS011;9776;50.798;6.430;2022-12-18T09:48:58;7.47;;;6.97;;
19285;SDS011;9776;50.798;6.430;2022-12-18T09:51:32;8.53;;;7.80;;
19285;SDS011;9776;50.798;6.430;2022-12-18T09:54:04;7.50;;;6.90;;
19285;SDS011;9776;50.798;6.430;2022-12-18T09:56:38;7.97;;;7.27;;
19285;SDS011;9776;50.798;6.430;2022-12-18T09:59:08;7.33;;;6.73;;
19285;SDS011;9776;50.798;6.430;2022-12-18T10:01:44;7.93;;;7.33;;
19285;SDS011;9776;50.798;6.430;2022-12-18T10:04:11;8.23;;;7.53;;
19285;SDS011;9776;50.798;6.430;2022-12-18T10:06:39;8.57;;;7.87;;
19285;SDS011;9776;50.798;6.430;2022-12-18T10:09:16;7.67;;;7.07;;
19285;SDS011;9776;50.798;6.430;2022-12-18T10:11:56;7.83;;;7.13;;
19285;SDS011;9776;50.798;6.430;2022-12-18T10:14:34;7.40;;;6.80;;
19285;SDS011;9776;50.798;6.430;2022-12-18T10:17:09;7.87;;;7.27;;
19285;SDS011;9776;50.798;6.430;2022-12-18T10:19:45;7.13;;;6.63;;
19285;SDS011;9776;50.798;6.430;2022-12-18T10:22:22;7.47;;;6.87;;
19285;SDS011;9776;50.798;6.430;2022-12-18T10:24:59;7.80;;;7.20;;
19285;SDS011;9776;50.798;6.430;2022-12-18T10:27:32;7.07;;;6.57;;
19285;SDS011;9776;50.798;6.430;2022-12-18T10:29:59;7.87;;;7.27;;
19285;SDS011;9776;50.798;6.430;2022-12-18T10:32:28;7.90;;;7.30;;
19285;SDS011;9776;50.798;6.430;2022-12-18T10:34:59;7.67;;;6.97;;
19285;SDS011;9776;50.798;6.430;2022-12-18T10:37:32;7.83;;;7.23;;
19285;SDS011;9776;50.798;6.430;2022-12-18T10:40:07;8.00;;;7.40;;
19285;SDS011;9776;50.798;6.430;2022-12-18T10:42:38;7.63;;;7.03;;
19285;SDS011;9776;50.798;6.430;2022-12-18T10:45:08;7.77;;;7.17;;
19285;SDS011;9776;50.798;6.430;2022-12-18T10:47:40;8.03;;;7.33;;
19285;SDS011;9776;50.798;6.430;2022-12-18T10:50:17;8.13;;;7.47;;
19285;SDS011;9776;50.798;6.430;2022-12-18T10:52:52;7.57;;;6.97;;
19285;SDS011;9776;50.798;6.430;2022-12-18T10:55:24;7.83;;;7.23;;
19285;SDS011;9776;50.798;6.430;2022-12-18T10:58:12;7.67;;;7.07;;
19285;SDS011;9776;50.798;6.430;2022-12-18T11:00:43;7.20;;;6.70;;
19285;SDS011;9776;50.798;6.430;2022-12-18T11:03:28;8.00;;;7.40;;
19285;SDS011;9776;50.798;6.430;2022-12-18T11:06:08;8.03;;;7.43;;
19285;SDS011;9776;50.798;6.430;2022-12-18T11:08:36;7.23;;;6.73;;
19285;SDS011;9776;50.798;6.430;2022-12-18T11:11:03;7.57;;;6.97;;
19285;SDS011;9776;50.798;6.430;2022-12-18T11:13:43;8.00;;;7.40;;
19285;SDS011;9776;50.798;6.430;2022-12-18T11:16:24;7.70;;;7.10;;
19285;SDS011;9776;50.798;6.430;2022-12-18T11:18:51;7.50;;;6.90;;
19285;SDS011;9776;50.798;6.430;2022-12-18T11:21:18;7.17;;;6.60;;
19285;SDS011;9776;50.798;6.430;2022-12-18T11:23:47;8.13;;;7.53;;
19285;SDS011;9776;50.798;6.430;2022-12-18T11:26:16;7.80;;;7.20;;
19285;SDS011;9776;50.798;6.430;2022-12-18T11:28:46;7.40;;;6.80;;
19285;SDS011;9776;50.798;6.430;2022-12-18T11:31:19;8.03;;;7.43;;
19285;SDS011;9776;50.798;6.430;2022-12-18T11:34:00;8.37;;;7.77;;
19285;SDS011;9776;50.798;6.430;2022-12-18T11:36:32;8.13;;;7.53;;
19285;SDS011;9776;50.798;6.430;2022-12-18T11:39:05;8.03;;;7.43;;
19285;SDS011;9776;50.798;6.430;2022-12-18T11:41:39;8.33;;;7.73;;
19285;SDS011;9776;50.798;6.430;2022-12-18T11:44:29;7.50;;;6.90;;
19285;SDS011;9776;50.798;6.430;2022-12-18T11:47:03;7.40;;;6.90;;
19285;SDS011;9776;50.798;6.430;2022-12-18T11:49:37;8.03;;;7.43;;
19285;SDS011;9776;50.798;6.430;2022-12-18T11:52:13;7.97;;;7.40;;
19285;SDS011;9776;50.798;6.430;2022-12-18T11:54:44;7.03;;;6.53;;
19285;SDS011;9776;50.798;6.430;2022-12-18T11:57:20;8.10;;;7.50;;
19285;SDS011;9776;50.798;6.430;2022-12-18T12:00:07;8.20;;;7.60;;
19285;SDS011;9776;50.798;6.430;2022-12-18T12:02:42;8.30;;;7.70;;
19285;SDS011;9776;50.798;6.430;2022-12-18T12:05:31;8.53;;;7.83;;
19285;SDS011;9776;50.798;6.430;2022-12-18T12:08:09;8.93;;;8.23;;
19285;SDS011;9776;50.798;6.430;2022-12-18T12:10:46;7.87;;;7.27;;
19285;SDS011;9776;50.798;6.430;2022-12-18T12:13:24;8.87;;;8.17;;
19285;SDS011;9776;50.798;6.430;2022-12-18T12:16:07;8.13;;;7.53;;
19285;SDS011;9776;50.798;6.430;2022-12-18T12:18:43;7.97;;;7.37;;
19285;SDS011;9776;50.798;6.430;2022-12-18T12:21:21;8.00;;;7.40;;
19285;SDS011;9776;50.798;6.430;2022-12-18T12:23:53;8.53;;;7.93;;
19285;SDS011;9776;50.798;6.430;2022-12-18T12:26:26;8.37;;;7.73;;
19285;SDS011;9776;50.798;6.430;2022-12-18T12:29:01;8.17;;;7.47;;
19285;SDS011;9776;50.798;6.430;2022-12-18T12:31:39;8.77;;;8.07;;
19285;SDS011;9776;50.798;6.430;2022-12-18T12:34:17;8.67;;;8.03;;
19285;SDS011;9776;50.798;6.430;2022-12-18T12:36:52;8.67;;;8.00;;
19285;SDS011;9776;50.798;6.430;2022-12-18T12:39:34;8.03;;;7.43;;
19285;SDS011;9776;50.798;6.430;2022-12-18T12:42:03;8.17;;;7.57;;
19285;SDS011;9776;50.798;6.430;2022-12-18T12:44:50;9.33;;;8.63;;
19285;SDS011;9776;50.798;6.430;2022-12-18T12:47:22;9.10;;;8.40;;
19285;SDS011;9776;50.798;6.430;2022-12-18T12:49:53;9.27;;;8.57;;
19285;SDS011;9776;50.798;6.430;2022-12-18T12:52:24;9.27;;;8.53;;
19285;SDS011;9776;50.798;6.430;2022-12-18T12:54:56;8.90;;;8.20;;
19285;SDS011;9776;50.798;6.430;2022-12-18T12:57:27;9.17;;;8.40;;
19285;SDS011;9776;50.798;6.430;2022-12-18T13:00:00;9.53;;;8.83;;
19285;SDS011;9776;50.798;6.430;2022-12-18T13:02:33;9.47;;;8.77;;
19285;SDS011;9776;50.798;6.430;2022-12-18T13:05:06;9.30;;;8.60;;
19285;SDS011;9776;50.798;6.430;2022-12-18T13:07:45;9.27;;;8.57;;
19285;SDS011;9776;50.798;6.430;2022-12-18T13:10:24;8.77;;;8.07;;
19285;SDS011;9776;50.798;6.430;2022-12-18T13:12:59;9.30;;;8.60;;
19285;SDS011;9776;50.798;6.430;2022-12-18T13:15:29;9.70;;;8.90;;
19285;SDS011;9776;50.798;6.430;2022-12-18T13:18:04;9.10;;;8.40;;
19285;SDS011;9776;50.798;6.430;2022-12-18T13:20:38;9.60;;;8.90;;
19285;SDS011;9776;50.798;6.430;2022-12-18T13:23:20;9.67;;;8.93;;
19285;SDS011;9776;50.798;6.430;2022-12-18T13:25:54;9.33;;;8.63;;
19285;SDS011;9776;50.798;6.430;2022-12-18T13:28:22;8.80;;;8.20;;
19285;SDS011;9776;50.798;6.430;2022-12-18T13:31:09;9.70;;;9.00;;
19285;SDS011;9776;50.798;6.430;2022-12-18T13:33:39;8.87;;;8.17;;
19285;SDS011;9776;50.798;6.430;2022-12-18T13:36:12;9.67;;;8.87;;
19285;SDS011;9776;50.798;6.430;2022-12-18T13:41:50;8.93;;;8.23;;
19285;SDS011;9776;50.798;6.430;2022-12-18T13:44:24;9.60;;;8.90;;
19285;SDS011;9776;50.798;6.430;2022-12-18T13:46:56;11.07;;;10.17;;
19285;SDS011;9776;50.798;6.430;2022-12-18T13:49:26;9.37;;;8.67;;
19285;SDS011;9776;50.798;6.430;2022-12-18T13:52:01;9.43;;;8.73;;
19285;SDS011;9776;50.798;6.430;2022-12-18T13:54:30;10.10;;;9.30;;
19285;SDS011;9776;50.798;6.430;2022-12-18T13:57:01;10.10;;;9.37;;
19285;SDS011;9776;50.798;6.430;2022-12-18T13:59:33;10.30;;;9.50;;
19285;SDS011;9776;50.798;6.430;2022-12-18T14:02:05;9.83;;;9.13;;
19285;SDS011;9776;50.798;6.430;2022-12-18T14:04:40;10.90;;;10.00;;
19285;SDS011;9776;50.798;6.430;2022-12-18T14:07:07;10.20;;;9.47;;
19285;SDS011;9776;50.798;6.430;2022-12-18T14:09:39;9.93;;;9.23;;
19285;SDS011;9776;50.798;6.430;2022-12-18T14:12:13;10.30;;;9.30;;
19285;SDS011;9776;50.798;6.430;2022-12-18T14:15:00;9.10;;;8.40;;
19285;SDS011;9776;50.798;6.430;2022-12-18T14:17:27;9.57;;;8.87;;
19285;SDS011;9776;50.798;6.430;2022-12-18T14:19:55;9.27;;;8.57;;
19285;SDS011;9776;50.798;6.430;2022-12-18T14:22:23;9.83;;;9.07;;
19285;SDS011;9776;50.798;6.430;2022-12-18T14:27:42;9.63;;;8.93;;
19285;SDS011;9776;50.798;6.430;2022-12-18T14:30:23;9.47;;;8.77;;
19285;SDS011;9776;50.798;6.430;2022-12-18T14:32:59;9.03;;;8.33;;
19285;SDS011;9776;50.798;6.430;2022-12-18T14:35:28;9.87;;;9.07;;
19285;SDS011;9776;50.798;6.430;2022-12-18T14:38:07;9.63;;;8.93;;
19285;SDS011;9776;50.798;6.430;2022-12-18T14:40:45;9.50;;;8.80;;
19285;SDS011;9776;50.798;6.430;2022-12-18T14:43:12;9.60;;;8.90;;
19285;SDS011;9776;50.798;6.430;2022-12-18T14:45:40;9.10;;;8.50;;
19285;SDS011;9776;50.798;6.430;2022-12-18T14:48:08;9.77;;;9.07;;
19285;SDS011;9776;50.798;6.430;2022-12-18T14:50:43;9.80;;;9.07;;
19285;SDS011;9776;50.798;6.430;2022-12-18T14:53:18;9.33;;;8.63;;
19285;SDS011;9776;50.798;6.430;2022-12-18T14:55:49;9.63;;;8.93;;
19285;SDS011;9776;50.798;6.430;2022-12-18T14:58:16;9.30;;;8.60;;
19285;SDS011;9776;50.798;6.430;2022-12-18T15:00:44;9.47;;;8.77;;
19285;SDS011;9776;50.798;6.430;2022-12-18T15:03:12;9.43;;;8.73;;
19285;SDS011;9776;50.798;6.430;2022-12-18T15:05:45;8.40;;;7.80;;
19285;SDS011;9776;50.798;6.430;2022-12-18T15:08:27;9.57;;;8.87;;
19285;SDS011;9776;50.798;6.430;2022-12-18T15:10:56;9.70;;;9.00;;
19285;SDS011;9776;50.798;6.430;2022-12-18T15:13:23;9.87;;;9.07;;
19285;SDS011;9776;50.798;6.430;2022-12-18T15:15:51;10.23;;;9.43;;
19285;SDS011;9776;50.798;6.430;2022-12-18T15:18:19;10.27;;;9.47;;
19285;SDS011;9776;50.798;6.430;2022-12-18T15:20:49;10.00;;;9.30;;
19285;SDS011;9776;50.798;6.430;2022-12-18T15:23:20;9.87;;;8.83;;
19285;SDS011;9776;50.798;6.430;2022-12-18T15:25:54;9.73;;;8.93;;
19285;SDS011;9776;50.798;6.430;2022-12-18T15:28:22;9.43;;;8.73;;